sensor_id;sensor_type;location;lat;lon;timestamp;P1;durP1;ratioP1;P2;durP2;ratioP2
52730;SDS011;38624;53.242;6.974;2022-10-16T00:01:57;11.45;;;2.20;;
52730;SDS011;38624;53.242;6.974;2022-10-16T00:04:22;7.03;;;2.17;;
52730;SDS011;38624;53.242;6.974;2022-10-16T00:06:48;6.47;;;1.83;;
52730;SDS011;38624;53.242;6.974;2022-10-16T00:09:13;7.05;;;2.10;;
52730;SDS011;38624;53.242;6.974;2022-10-16T00:11:39;8.40;;;1.92;;
52730;SDS011;38624;53.242;6.974;2022-10-16T00:14:07;4.80;;;1.70;;
52730;SDS011;38624;53.242;6.974;2022-10-16T00:16:35;7.38;;;1.83;;
52730;SDS011;38624;53.242;6.974;2022-10-16T00:19:02;6.50;;;2.08;;
52730;SDS011;38624;53.242;6.974;2022-10-16T00:21:29;5.40;;;1.60;;
52730;SDS011;38624;53.242;6.974;2022-10-16T00:23:56;6.80;;;1.83;;
52730;SDS011;38624;53.242;6.974;2022-10-16T00:26:28;6.68;;;2.10;;
52730;SDS011;38624;53.242;6.974;2022-10-16T00:28:55;9.25;;;1.80;;
52730;SDS011;38624;53.242;6.974;2022-10-16T00:31:21;8.60;;;1.95;;
52730;SDS011;38624;53.242;6.974;2022-10-16T00:36:15;8.95;;;1.90;;
52730;SDS011;38624;53.242;6.974;2022-10-16T00:38:43;5.88;;;2.05;;
52730;SDS011;38624;53.242;6.974;2022-10-16T00:41:10;4.47;;;1.60;;
52730;SDS011;38624;53.242;6.974;2022-10-16T00:43:42;8.13;;;1.90;;
52730;SDS011;38624;53.242;6.974;2022-10-16T00:46:12;10.13;;;2.28;;
52730;SDS011;38624;53.242;6.974;2022-10-16T00:48:41;7.78;;;2.08;;
52730;SDS011;38624;53.242;6.974;2022-10-16T00:51:09;5.53;;;2.05;;
52730;SDS011;38624;53.242;6.974;2022-10-16T00:53:35;8.95;;;2.08;;
52730;SDS011;38624;53.242;6.974;2022-10-16T00:56:02;8.88;;;2.00;;
52730;SDS011;38624;53.242;6.974;2022-10-16T00:58:28;6.60;;;1.70;;
52730;SDS011;38624;53.242;6.974;2022-10-16T01:00:54;5.68;;;1.60;;
52730;SDS011;38624;53.242;6.974;2022-10-16T01:14:48;8.40;;;1.65;;
52730;SDS011;38624;53.242;6.974;2022-10-16T01:17:37;5.93;;;1.60;;
52730;SDS011;38624;53.242;6.974;2022-10-16T01:22:59;11.73;;;1.88;;
52730;SDS011;38624;53.242;6.974;2022-10-16T01:28:16;7.03;;;1.90;;
52730;SDS011;38624;53.242;6.974;2022-10-16T01:30:44;7.68;;;1.85;;
52730;SDS011;38624;53.242;6.974;2022-10-16T01:33:16;8.23;;;1.75;;
52730;SDS011;38624;53.242;6.974;2022-10-16T01:35:52;6.88;;;1.92;;
52730;SDS011;38624;53.242;6.974;2022-10-16T01:38:29;8.30;;;1.83;;
52730;SDS011;38624;53.242;6.974;2022-10-16T01:40:59;5.28;;;1.80;;
52730;SDS011;38624;53.242;6.974;2022-10-16T01:43:33;9.63;;;2.08;;
52730;SDS011;38624;53.242;6.974;2022-10-16T01:46:10;6.50;;;1.70;;
52730;SDS011;38624;53.242;6.974;2022-10-16T01:48:38;11.82;;;2.25;;
52730;SDS011;38624;53.242;6.974;2022-10-16T01:51:11;4.38;;;1.77;;
52730;SDS011;38624;53.242;6.974;2022-10-16T01:53:39;4.65;;;1.65;;
52730;SDS011;38624;53.242;6.974;2022-10-16T01:56:08;4.13;;;1.88;;
52730;SDS011;38624;53.242;6.974;2022-10-16T01:58:37;5.72;;;1.77;;
52730;SDS011;38624;53.242;6.974;2022-10-16T02:01:07;7.95;;;1.90;;
52730;SDS011;38624;53.242;6.974;2022-10-16T02:03:36;6.20;;;1.90;;
52730;SDS011;38624;53.242;6.974;2022-10-16T02:06:06;6.55;;;2.10;;
52730;SDS011;38624;53.242;6.974;2022-10-16T02:08:32;6.60;;;2.10;;
52730;SDS011;38624;53.242;6.974;2022-10-16T02:10:59;6.82;;;2.03;;
52730;SDS011;38624;53.242;6.974;2022-10-16T02:13:36;4.25;;;2.00;;
52730;SDS011;38624;53.242;6.974;2022-10-16T02:16:07;5.47;;;1.98;;
52730;SDS011;38624;53.242;6.974;2022-10-16T02:18:35;7.75;;;1.95;;
52730;SDS011;38624;53.242;6.974;2022-10-16T02:21:02;6.55;;;2.05;;
52730;SDS011;38624;53.242;6.974;2022-10-16T02:26:30;7.87;;;1.97;;
52730;SDS011;38624;53.242;6.974;2022-10-16T02:29:02;9.60;;;2.20;;
52730;SDS011;38624;53.242;6.974;2022-10-16T02:31:33;8.40;;;2.58;;
52730;SDS011;38624;53.242;6.974;2022-10-16T02:34:03;8.52;;;2.28;;
52730;SDS011;38624;53.242;6.974;2022-10-16T02:36:32;7.82;;;2.03;;
52730;SDS011;38624;53.242;6.974;2022-10-16T02:38:59;5.85;;;2.20;;
52730;SDS011;38624;53.242;6.974;2022-10-16T02:43:51;5.55;;;2.35;;
52730;SDS011;38624;53.242;6.974;2022-10-16T02:46:17;9.57;;;2.60;;
52730;SDS011;38624;53.242;6.974;2022-10-16T02:48:43;8.57;;;2.10;;
52730;SDS011;38624;53.242;6.974;2022-10-16T02:51:09;5.85;;;2.25;;
52730;SDS011;38624;53.242;6.974;2022-10-16T02:53:35;5.22;;;2.17;;
52730;SDS011;38624;53.242;6.974;2022-10-16T02:56:01;8.20;;;2.40;;
52730;SDS011;38624;53.242;6.974;2022-10-16T02:58:26;5.38;;;2.17;;
52730;SDS011;38624;53.242;6.974;2022-10-16T03:00:52;5.82;;;2.10;;
52730;SDS011;38624;53.242;6.974;2022-10-16T03:03:18;6.18;;;2.38;;
52730;SDS011;38624;53.242;6.974;2022-10-16T03:05:43;9.13;;;2.42;;
52730;SDS011;38624;53.242;6.974;2022-10-16T03:10:36;7.05;;;2.50;;
52730;SDS011;38624;53.242;6.974;2022-10-16T03:13:02;10.17;;;2.50;;
52730;SDS011;38624;53.242;6.974;2022-10-16T03:15:28;6.50;;;2.23;;
52730;SDS011;38624;53.242;6.974;2022-10-16T03:17:54;8.10;;;2.38;;
52730;SDS011;38624;53.242;6.974;2022-10-16T03:20:22;7.07;;;2.30;;
52730;SDS011;38624;53.242;6.974;2022-10-16T03:22:47;9.30;;;2.15;;
52730;SDS011;38624;53.242;6.974;2022-10-16T03:25:13;4.05;;;2.10;;
52730;SDS011;38624;53.242;6.974;2022-10-16T03:27:39;5.35;;;2.00;;
52730;SDS011;38624;53.242;6.974;2022-10-16T03:30:04;5.65;;;2.28;;
52730;SDS011;38624;53.242;6.974;2022-10-16T03:32:31;4.78;;;2.10;;
52730;SDS011;38624;53.242;6.974;2022-10-16T03:34:56;5.53;;;2.08;;
52730;SDS011;38624;53.242;6.974;2022-10-16T03:37:22;5.30;;;2.27;;
52730;SDS011;38624;53.242;6.974;2022-10-16T03:39:48;6.38;;;2.20;;
52730;SDS011;38624;53.242;6.974;2022-10-16T03:42:13;3.83;;;1.98;;
52730;SDS011;38624;53.242;6.974;2022-10-16T03:44:39;7.40;;;2.42;;
52730;SDS011;38624;53.242;6.974;2022-10-16T03:47:05;6.18;;;2.30;;
52730;SDS011;38624;53.242;6.974;2022-10-16T03:49:30;9.13;;;2.50;;
52730;SDS011;38624;53.242;6.974;2022-10-16T03:51:56;6.85;;;2.30;;
52730;SDS011;38624;53.242;6.974;2022-10-16T03:54:22;8.10;;;1.90;;
52730;SDS011;38624;53.242;6.974;2022-10-16T03:56:47;6.40;;;2.00;;
52730;SDS011;38624;53.242;6.974;2022-10-16T03:59:13;4.30;;;2.17;;
52730;SDS011;38624;53.242;6.974;2022-10-16T04:01:39;5.07;;;1.80;;
52730;SDS011;38624;53.242;6.974;2022-10-16T04:04:05;8.50;;;2.20;;
52730;SDS011;38624;53.242;6.974;2022-10-16T04:06:30;6.47;;;2.00;;
52730;SDS011;38624;53.242;6.974;2022-10-16T04:08:56;4.47;;;2.22;;
52730;SDS011;38624;53.242;6.974;2022-10-16T04:11:22;7.75;;;2.50;;
52730;SDS011;38624;53.242;6.974;2022-10-16T04:13:48;5.55;;;2.15;;
52730;SDS011;38624;53.242;6.974;2022-10-16T04:16:13;5.97;;;2.20;;
52730;SDS011;38624;53.242;6.974;2022-10-16T04:18:39;6.47;;;2.58;;
52730;SDS011;38624;53.242;6.974;2022-10-16T04:21:05;11.15;;;2.33;;
52730;SDS011;38624;53.242;6.974;2022-10-16T04:23:31;7.82;;;2.30;;
52730;SDS011;38624;53.242;6.974;2022-10-16T04:25:57;5.83;;;2.67;;
52730;SDS011;38624;53.242;6.974;2022-10-16T04:28:24;5.90;;;2.30;;
52730;SDS011;38624;53.242;6.974;2022-10-16T04:30:50;7.28;;;2.70;;
52730;SDS011;38624;53.242;6.974;2022-10-16T04:33:15;4.13;;;2.13;;
52730;SDS011;38624;53.242;6.974;2022-10-16T04:35:41;5.15;;;2.22;;
52730;SDS011;38624;53.242;6.974;2022-10-16T04:38:07;4.05;;;2.30;;
52730;SDS011;38624;53.242;6.974;2022-10-16T04:40:33;4.68;;;2.10;;
52730;SDS011;38624;53.242;6.974;2022-10-16T04:43:01;4.38;;;2.15;;
52730;SDS011;38624;53.242;6.974;2022-10-16T04:45:29;3.30;;;1.85;;
52730;SDS011;38624;53.242;6.974;2022-10-16T04:47:59;5.50;;;1.88;;
52730;SDS011;38624;53.242;6.974;2022-10-16T04:50:25;4.55;;;2.03;;
52730;SDS011;38624;53.242;6.974;2022-10-16T04:52:51;2.97;;;1.88;;
52730;SDS011;38624;53.242;6.974;2022-10-16T04:55:17;8.27;;;2.25;;
52730;SDS011;38624;53.242;6.974;2022-10-16T04:57:42;7.22;;;1.70;;
52730;SDS011;38624;53.242;6.974;2022-10-16T05:00:08;4.32;;;2.08;;
52730;SDS011;38624;53.242;6.974;2022-10-16T05:02:34;5.30;;;2.17;;
52730;SDS011;38624;53.242;6.974;2022-10-16T05:05:00;5.38;;;1.88;;
52730;SDS011;38624;53.242;6.974;2022-10-16T05:07:26;3.92;;;2.00;;
52730;SDS011;38624;53.242;6.974;2022-10-16T05:09:51;3.67;;;1.90;;
52730;SDS011;38624;53.242;6.974;2022-10-16T05:12:17;5.20;;;2.20;;
52730;SDS011;38624;53.242;6.974;2022-10-16T05:14:43;5.38;;;1.80;;
52730;SDS011;38624;53.242;6.974;2022-10-16T05:17:08;5.65;;;2.10;;
52730;SDS011;38624;53.242;6.974;2022-10-16T05:19:34;6.85;;;2.08;;
52730;SDS011;38624;53.242;6.974;2022-10-16T05:22:00;4.63;;;1.90;;
52730;SDS011;38624;53.242;6.974;2022-10-16T05:24:25;5.88;;;1.85;;
52730;SDS011;38624;53.242;6.974;2022-10-16T05:26:52;4.70;;;2.10;;
52730;SDS011;38624;53.242;6.974;2022-10-16T05:29:18;4.10;;;2.10;;
52730;SDS011;38624;53.242;6.974;2022-10-16T05:31:44;4.90;;;2.38;;
52730;SDS011;38624;53.242;6.974;2022-10-16T05:34:09;8.45;;;2.40;;
52730;SDS011;38624;53.242;6.974;2022-10-16T05:36:35;5.20;;;2.30;;
52730;SDS011;38624;53.242;6.974;2022-10-16T05:39:01;5.47;;;2.22;;
52730;SDS011;38624;53.242;6.974;2022-10-16T05:41:27;6.43;;;2.17;;
52730;SDS011;38624;53.242;6.974;2022-10-16T05:43:53;3.85;;;2.15;;
52730;SDS011;38624;53.242;6.974;2022-10-16T05:46:19;7.75;;;2.50;;
52730;SDS011;38624;53.242;6.974;2022-10-16T05:48:45;3.42;;;2.10;;
52730;SDS011;38624;53.242;6.974;2022-10-16T05:51:11;3.35;;;2.03;;
52730;SDS011;38624;53.242;6.974;2022-10-16T05:53:38;3.75;;;2.22;;
52730;SDS011;38624;53.242;6.974;2022-10-16T05:56:05;7.47;;;2.50;;
52730;SDS011;38624;53.242;6.974;2022-10-16T05:58:33;9.13;;;2.22;;
52730;SDS011;38624;53.242;6.974;2022-10-16T06:01:01;7.20;;;3.00;;
52730;SDS011;38624;53.242;6.974;2022-10-16T06:03:32;5.65;;;2.28;;
52730;SDS011;38624;53.242;6.974;2022-10-16T06:05:59;5.13;;;2.40;;
52730;SDS011;38624;53.242;6.974;2022-10-16T06:08:32;4.95;;;2.40;;
52730;SDS011;38624;53.242;6.974;2022-10-16T06:11:01;8.38;;;2.50;;
52730;SDS011;38624;53.242;6.974;2022-10-16T06:13:31;7.10;;;2.38;;
52730;SDS011;38624;53.242;6.974;2022-10-16T06:15:57;6.88;;;2.65;;
52730;SDS011;38624;53.242;6.974;2022-10-16T06:18:24;6.80;;;2.47;;
52730;SDS011;38624;53.242;6.974;2022-10-16T06:20:51;6.85;;;2.25;;
52730;SDS011;38624;53.242;6.974;2022-10-16T06:23:16;6.07;;;2.53;;
52730;SDS011;38624;53.242;6.974;2022-10-16T06:25:42;6.23;;;2.70;;
52730;SDS011;38624;53.242;6.974;2022-10-16T06:28:07;5.72;;;2.40;;
52730;SDS011;38624;53.242;6.974;2022-10-16T06:30:33;7.70;;;2.50;;
52730;SDS011;38624;53.242;6.974;2022-10-16T06:32:59;8.10;;;3.08;;
52730;SDS011;38624;53.242;6.974;2022-10-16T06:35:24;5.43;;;2.50;;
52730;SDS011;38624;53.242;6.974;2022-10-16T06:37:52;7.28;;;2.78;;
52730;SDS011;38624;53.242;6.974;2022-10-16T06:40:18;5.00;;;2.55;;
52730;SDS011;38624;53.242;6.974;2022-10-16T06:42:43;6.47;;;3.00;;
52730;SDS011;38624;53.242;6.974;2022-10-16T06:45:10;6.47;;;2.60;;
52730;SDS011;38624;53.242;6.974;2022-10-16T06:47:35;4.20;;;2.22;;
52730;SDS011;38624;53.242;6.974;2022-10-16T06:50:01;6.82;;;2.70;;
52730;SDS011;38624;53.242;6.974;2022-10-16T06:52:28;5.10;;;2.30;;
52730;SDS011;38624;53.242;6.974;2022-10-16T06:54:54;8.50;;;2.60;;
52730;SDS011;38624;53.242;6.974;2022-10-16T06:57:20;5.47;;;2.42;;
52730;SDS011;38624;53.242;6.974;2022-10-16T06:59:45;5.10;;;2.80;;
52730;SDS011;38624;53.242;6.974;2022-10-16T07:02:11;7.10;;;2.65;;
52730;SDS011;38624;53.242;6.974;2022-10-16T07:04:37;6.03;;;2.67;;
52730;SDS011;38624;53.242;6.974;2022-10-16T07:07:02;7.88;;;2.85;;
52730;SDS011;38624;53.242;6.974;2022-10-16T07:09:28;5.50;;;2.42;;
52730;SDS011;38624;53.242;6.974;2022-10-16T07:11:54;9.48;;;2.40;;
52730;SDS011;38624;53.242;6.974;2022-10-16T07:14:20;4.00;;;2.38;;
52730;SDS011;38624;53.242;6.974;2022-10-16T07:16:47;6.75;;;2.45;;
52730;SDS011;38624;53.242;6.974;2022-10-16T07:19:13;4.47;;;2.60;;
52730;SDS011;38624;53.242;6.974;2022-10-16T07:21:42;7.75;;;2.60;;
52730;SDS011;38624;53.242;6.974;2022-10-16T07:24:12;6.50;;;2.25;;
52730;SDS011;38624;53.242;6.974;2022-10-16T07:26:40;5.57;;;2.42;;
52730;SDS011;38624;53.242;6.974;2022-10-16T07:29:16;6.90;;;2.10;;
52730;SDS011;38624;53.242;6.974;2022-10-16T07:31:43;6.90;;;2.45;;
52730;SDS011;38624;53.242;6.974;2022-10-16T07:34:10;9.57;;;2.20;;
52730;SDS011;38624;53.242;6.974;2022-10-16T07:36:38;5.88;;;2.58;;
52730;SDS011;38624;53.242;6.974;2022-10-16T07:39:04;5.15;;;2.28;;
52730;SDS011;38624;53.242;6.974;2022-10-16T07:41:30;3.72;;;1.98;;
52730;SDS011;38624;53.242;6.974;2022-10-16T07:43:57;5.15;;;2.10;;
52730;SDS011;38624;53.242;6.974;2022-10-16T07:46:27;4.43;;;2.13;;
52730;SDS011;38624;53.242;6.974;2022-10-16T07:48:53;5.60;;;2.65;;
52730;SDS011;38624;53.242;6.974;2022-10-16T07:51:20;6.90;;;2.27;;
52730;SDS011;38624;53.242;6.974;2022-10-16T07:53:47;5.32;;;2.20;;
52730;SDS011;38624;53.242;6.974;2022-10-16T07:56:13;6.38;;;2.42;;
52730;SDS011;38624;53.242;6.974;2022-10-16T07:58:40;5.50;;;2.13;;
52730;SDS011;38624;53.242;6.974;2022-10-16T08:01:07;4.07;;;2.50;;
52730;SDS011;38624;53.242;6.974;2022-10-16T08:03:38;7.78;;;2.40;;
52730;SDS011;38624;53.242;6.974;2022-10-16T08:06:10;7.30;;;2.33;;
52730;SDS011;38624;53.242;6.974;2022-10-16T08:08:36;5.90;;;2.50;;
52730;SDS011;38624;53.242;6.974;2022-10-16T08:11:02;6.20;;;2.30;;
52730;SDS011;38624;53.242;6.974;2022-10-16T08:13:30;7.75;;;2.40;;
52730;SDS011;38624;53.242;6.974;2022-10-16T08:15:56;5.20;;;2.42;;
52730;SDS011;38624;53.242;6.974;2022-10-16T08:18:22;4.83;;;2.27;;
52730;SDS011;38624;53.242;6.974;2022-10-16T08:20:48;5.38;;;2.40;;
52730;SDS011;38624;53.242;6.974;2022-10-16T08:23:21;8.32;;;2.50;;
52730;SDS011;38624;53.242;6.974;2022-10-16T08:25:47;6.85;;;2.10;;
52730;SDS011;38624;53.242;6.974;2022-10-16T08:28:13;5.93;;;2.10;;
52730;SDS011;38624;53.242;6.974;2022-10-16T08:30:38;8.32;;;2.30;;
52730;SDS011;38624;53.242;6.974;2022-10-16T08:33:05;6.05;;;1.80;;
52730;SDS011;38624;53.242;6.974;2022-10-16T08:35:31;5.70;;;2.00;;
52730;SDS011;38624;53.242;6.974;2022-10-16T08:37:57;6.97;;;2.60;;
52730;SDS011;38624;53.242;6.974;2022-10-16T08:40:24;4.60;;;2.05;;
52730;SDS011;38624;53.242;6.974;2022-10-16T08:48:44;5.93;;;1.88;;
52730;SDS011;38624;53.242;6.974;2022-10-16T08:54:03;5.85;;;1.88;;
52730;SDS011;38624;53.242;6.974;2022-10-16T08:56:30;5.53;;;1.98;;
52730;SDS011;38624;53.242;6.974;2022-10-16T08:58:57;5.43;;;1.70;;
52730;SDS011;38624;53.242;6.974;2022-10-16T09:01:25;4.57;;;1.77;;
52730;SDS011;38624;53.242;6.974;2022-10-16T09:12:40;5.50;;;1.50;;
52730;SDS011;38624;53.242;6.974;2022-10-16T09:18:19;5.25;;;1.45;;
52730;SDS011;38624;53.242;6.974;2022-10-16T09:23:42;7.22;;;1.42;;
52730;SDS011;38624;53.242;6.974;2022-10-16T09:26:12;6.80;;;1.50;;
52730;SDS011;38624;53.242;6.974;2022-10-16T09:28:40;5.32;;;1.35;;
52730;SDS011;38624;53.242;6.974;2022-10-16T09:31:17;3.05;;;1.50;;
52730;SDS011;38624;53.242;6.974;2022-10-16T09:36:13;17.02;;;1.80;;
52730;SDS011;38624;53.242;6.974;2022-10-16T09:38:39;10.00;;;2.17;;
52730;SDS011;38624;53.242;6.974;2022-10-16T09:41:15;5.25;;;1.73;;
52730;SDS011;38624;53.242;6.974;2022-10-16T09:46:28;7.18;;;1.73;;
52730;SDS011;38624;53.242;6.974;2022-10-16T09:48:56;8.52;;;2.00;;
52730;SDS011;38624;53.242;6.974;2022-10-16T09:51:41;7.65;;;2.60;;
52730;SDS011;38624;53.242;6.974;2022-10-16T09:56:40;6.00;;;1.45;;
52730;SDS011;38624;53.242;6.974;2022-10-16T09:59:14;11.77;;;2.15;;
52730;SDS011;38624;53.242;6.974;2022-10-16T10:01:48;10.57;;;2.00;;
52730;SDS011;38624;53.242;6.974;2022-10-16T10:04:21;6.38;;;1.73;;
52730;SDS011;38624;53.242;6.974;2022-10-16T10:06:49;9.82;;;1.98;;
52730;SDS011;38624;53.242;6.974;2022-10-16T10:09:21;8.57;;;2.05;;
52730;SDS011;38624;53.242;6.974;2022-10-16T10:11:53;12.50;;;1.98;;
52730;SDS011;38624;53.242;6.974;2022-10-16T10:14:46;9.80;;;1.90;;
52730;SDS011;38624;53.242;6.974;2022-10-16T10:17:15;4.00;;;1.27;;
52730;SDS011;38624;53.242;6.974;2022-10-16T10:19:58;7.82;;;1.50;;
52730;SDS011;38624;53.242;6.974;2022-10-16T10:36:19;10.75;;;2.15;;
52730;SDS011;38624;53.242;6.974;2022-10-16T10:50:10;8.32;;;2.10;;
52730;SDS011;38624;53.242;6.974;2022-10-16T11:03:42;12.23;;;2.10;;
52730;SDS011;38624;53.242;6.974;2022-10-16T11:06:31;16.25;;;2.35;;
52730;SDS011;38624;53.242;6.974;2022-10-16T11:14:26;9.98;;;2.20;;
52730;SDS011;38624;53.242;6.974;2022-10-16T11:17:18;11.02;;;2.08;;
52730;SDS011;38624;53.242;6.974;2022-10-16T11:22:50;10.98;;;2.05;;
52730;SDS011;38624;53.242;6.974;2022-10-16T11:30:20;10.67;;;1.90;;
52730;SDS011;38624;53.242;6.974;2022-10-16T11:32:54;11.38;;;1.90;;
52730;SDS011;38624;53.242;6.974;2022-10-16T11:38:34;10.15;;;1.77;;
52730;SDS011;38624;53.242;6.974;2022-10-16T11:46:32;10.30;;;1.92;;
52730;SDS011;38624;53.242;6.974;2022-10-16T11:49:21;10.27;;;2.05;;
52730;SDS011;38624;53.242;6.974;2022-10-16T11:52:07;9.25;;;1.73;;
52730;SDS011;38624;53.242;6.974;2022-10-16T11:57:26;12.63;;;2.45;;
52730;SDS011;38624;53.242;6.974;2022-10-16T12:03:01;10.00;;;1.88;;
52730;SDS011;38624;53.242;6.974;2022-10-16T12:08:36;7.78;;;1.60;;
52730;SDS011;38624;53.242;6.974;2022-10-16T12:11:07;6.68;;;1.42;;
52730;SDS011;38624;53.242;6.974;2022-10-16T12:13:35;9.00;;;2.22;;
52730;SDS011;38624;53.242;6.974;2022-10-16T12:16:22;12.35;;;2.13;;
52730;SDS011;38624;53.242;6.974;2022-10-16T12:18:49;10.30;;;1.67;;
52730;SDS011;38624;53.242;6.974;2022-10-16T12:21:30;8.52;;;1.77;;
52730;SDS011;38624;53.242;6.974;2022-10-16T12:23:58;10.35;;;2.00;;
52730;SDS011;38624;53.242;6.974;2022-10-16T12:26:29;8.32;;;1.52;;
52730;SDS011;38624;53.242;6.974;2022-10-16T12:31:52;11.00;;;2.08;;
52730;SDS011;38624;53.242;6.974;2022-10-16T12:34:28;9.60;;;1.80;;
52730;SDS011;38624;53.242;6.974;2022-10-16T12:37:18;10.10;;;1.63;;
52730;SDS011;38624;53.242;6.974;2022-10-16T12:39:48;9.18;;;2.03;;
52730;SDS011;38624;53.242;6.974;2022-10-16T12:44:46;8.80;;;1.90;;
52730;SDS011;38624;53.242;6.974;2022-10-16T12:52:58;10.30;;;1.95;;
52730;SDS011;38624;53.242;6.974;2022-10-16T12:55:25;6.90;;;1.65;;
52730;SDS011;38624;53.242;6.974;2022-10-16T13:00:53;8.23;;;1.98;;
52730;SDS011;38624;53.242;6.974;2022-10-16T13:14:14;10.25;;;2.22;;
52730;SDS011;38624;53.242;6.974;2022-10-16T13:17:06;7.68;;;1.67;;
52730;SDS011;38624;53.242;6.974;2022-10-16T13:19:37;8.02;;;1.58;;
52730;SDS011;38624;53.242;6.974;2022-10-16T13:28:01;6.57;;;1.60;;
52730;SDS011;38624;53.242;6.974;2022-10-16T13:33:11;10.80;;;1.90;;
52730;SDS011;38624;53.242;6.974;2022-10-16T13:35:50;7.75;;;1.70;;
52730;SDS011;38624;53.242;6.974;2022-10-16T13:38:19;8.00;;;1.92;;
52730;SDS011;38624;53.242;6.974;2022-10-16T13:41:17;10.48;;;1.83;;
52730;SDS011;38624;53.242;6.974;2022-10-16T13:43:52;6.63;;;2.10;;
52730;SDS011;38624;53.242;6.974;2022-10-16T13:46:22;11.02;;;1.90;;
52730;SDS011;38624;53.242;6.974;2022-10-16T13:49:03;9.27;;;1.85;;
52730;SDS011;38624;53.242;6.974;2022-10-16T13:51:31;7.95;;;1.63;;
52730;SDS011;38624;53.242;6.974;2022-10-16T13:53:58;8.52;;;1.77;;
52730;SDS011;38624;53.242;6.974;2022-10-16T13:56:25;10.27;;;1.98;;
52730;SDS011;38624;53.242;6.974;2022-10-16T13:59:38;8.85;;;1.90;;
52730;SDS011;38624;53.242;6.974;2022-10-16T14:01:49;11.32;;;1.40;;
52730;SDS011;38624;53.242;6.974;2022-10-16T14:04:19;10.90;;;1.75;;
52730;SDS011;38624;53.242;6.974;2022-10-16T14:06:45;9.55;;;1.80;;
52730;SDS011;38624;53.242;6.974;2022-10-16T14:09:17;9.07;;;1.92;;
52730;SDS011;38624;53.242;6.974;2022-10-16T14:11:53;10.68;;;2.00;;
52730;SDS011;38624;53.242;6.974;2022-10-16T14:14:43;11.35;;;1.90;;
52730;SDS011;38624;53.242;6.974;2022-10-16T14:17:29;9.95;;;1.55;;
52730;SDS011;38624;53.242;6.974;2022-10-16T14:19:58;13.07;;;2.13;;
52730;SDS011;38624;53.242;6.974;2022-10-16T14:22:28;7.75;;;1.65;;
52730;SDS011;38624;53.242;6.974;2022-10-16T14:24:57;12.93;;;1.90;;
52730;SDS011;38624;53.242;6.974;2022-10-16T14:27:31;11.82;;;1.77;;
52730;SDS011;38624;53.242;6.974;2022-10-16T14:32:33;7.55;;;2.00;;
52730;SDS011;38624;53.242;6.974;2022-10-16T14:34:59;9.93;;;1.83;;
52730;SDS011;38624;53.242;6.974;2022-10-16T14:37:28;10.90;;;1.63;;
52730;SDS011;38624;53.242;6.974;2022-10-16T14:39:55;8.32;;;1.52;;
52730;SDS011;38624;53.242;6.974;2022-10-16T14:42:22;11.30;;;1.92;;
52730;SDS011;38624;53.242;6.974;2022-10-16T14:44:50;9.70;;;1.73;;
52730;SDS011;38624;53.242;6.974;2022-10-16T14:47:24;10.52;;;2.08;;
52730;SDS011;38624;53.242;6.974;2022-10-16T14:49:54;13.55;;;2.00;;
52730;SDS011;38624;53.242;6.974;2022-10-16T14:52:22;8.88;;;1.90;;
52730;SDS011;38624;53.242;6.974;2022-10-16T14:54:48;9.00;;;1.80;;
52730;SDS011;38624;53.242;6.974;2022-10-16T14:57:16;13.25;;;2.13;;
52730;SDS011;38624;53.242;6.974;2022-10-16T14:59:52;9.00;;;1.98;;
52730;SDS011;38624;53.242;6.974;2022-10-16T15:02:20;8.80;;;1.77;;
52730;SDS011;38624;53.242;6.974;2022-10-16T15:04:56;10.48;;;1.92;;
52730;SDS011;38624;53.242;6.974;2022-10-16T15:07:22;10.55;;;1.90;;
52730;SDS011;38624;53.242;6.974;2022-10-16T15:09:48;8.50;;;1.87;;
52730;SDS011;38624;53.242;6.974;2022-10-16T15:12:13;9.47;;;2.03;;
52730;SDS011;38624;53.242;6.974;2022-10-16T15:14:39;11.50;;;1.83;;
52730;SDS011;38624;53.242;6.974;2022-10-16T15:17:05;9.83;;;1.60;;
52730;SDS011;38624;53.242;6.974;2022-10-16T15:19:33;8.35;;;1.80;;
52730;SDS011;38624;53.242;6.974;2022-10-16T15:21:59;10.43;;;1.83;;
52730;SDS011;38624;53.242;6.974;2022-10-16T15:24:25;12.73;;;1.70;;
52730;SDS011;38624;53.242;6.974;2022-10-16T15:26:50;9.03;;;2.17;;
52730;SDS011;38624;53.242;6.974;2022-10-16T15:29:16;5.77;;;1.97;;
52730;SDS011;38624;53.242;6.974;2022-10-16T15:31:42;10.37;;;2.00;;
52730;SDS011;38624;53.242;6.974;2022-10-16T15:34:08;8.27;;;1.77;;
52730;SDS011;38624;53.242;6.974;2022-10-16T15:36:36;10.82;;;2.22;;
52730;SDS011;38624;53.242;6.974;2022-10-16T15:39:03;10.75;;;1.83;;
52730;SDS011;38624;53.242;6.974;2022-10-16T15:41:30;10.38;;;2.00;;
52730;SDS011;38624;53.242;6.974;2022-10-16T15:43:56;10.30;;;1.90;;
52730;SDS011;38624;53.242;6.974;2022-10-16T15:46:22;11.73;;;1.90;;
52730;SDS011;38624;53.242;6.974;2022-10-16T15:48:49;10.55;;;1.70;;
52730;SDS011;38624;53.242;6.974;2022-10-16T15:51:16;7.80;;;1.80;;
52730;SDS011;38624;53.242;6.974;2022-10-16T15:56:11;9.57;;;1.55;;
52730;SDS011;38624;53.242;6.974;2022-10-16T15:58:37;10.32;;;1.88;;
52730;SDS011;38624;53.242;6.974;2022-10-16T16:01:03;10.93;;;2.07;;
52730;SDS011;38624;53.242;6.974;2022-10-16T16:03:30;8.23;;;2.28;;
52730;SDS011;38624;53.242;6.974;2022-10-16T16:05:56;13.30;;;2.35;;
52730;SDS011;38624;53.242;6.974;2022-10-16T16:08:22;9.60;;;2.22;;
52730;SDS011;38624;53.242;6.974;2022-10-16T16:11:05;11.37;;;2.50;;
52730;SDS011;38624;53.242;6.974;2022-10-16T16:13:32;12.60;;;2.20;;
52730;SDS011;38624;53.242;6.974;2022-10-16T16:15:58;9.18;;;2.00;;
52730;SDS011;38624;53.242;6.974;2022-10-16T16:18:24;9.48;;;1.90;;
52730;SDS011;38624;53.242;6.974;2022-10-16T16:20:51;10.50;;;2.40;;
52730;SDS011;38624;53.242;6.974;2022-10-16T16:23:17;9.15;;;2.03;;
52730;SDS011;38624;53.242;6.974;2022-10-16T16:25:44;10.77;;;1.88;;
52730;SDS011;38624;53.242;6.974;2022-10-16T16:28:09;13.23;;;3.63;;
52730;SDS011;38624;53.242;6.974;2022-10-16T16:30:39;11.02;;;3.55;;
52730;SDS011;38624;53.242;6.974;2022-10-16T16:33:05;12.60;;;4.53;;
52730;SDS011;38624;53.242;6.974;2022-10-16T16:35:31;13.97;;;4.07;;
52730;SDS011;38624;53.242;6.974;2022-10-16T16:37:57;10.20;;;3.53;;
52730;SDS011;38624;53.242;6.974;2022-10-16T16:40:22;10.40;;;3.30;;
52730;SDS011;38624;53.242;6.974;2022-10-16T16:42:48;12.37;;;3.40;;
52730;SDS011;38624;53.242;6.974;2022-10-16T16:45:14;13.87;;;3.40;;
52730;SDS011;38624;53.242;6.974;2022-10-16T16:47:40;12.67;;;2.77;;
52730;SDS011;38624;53.242;6.974;2022-10-16T16:50:06;7.70;;;2.43;;
52730;SDS011;38624;53.242;6.974;2022-10-16T16:52:32;11.63;;;2.40;;
52730;SDS011;38624;53.242;6.974;2022-10-16T16:54:59;13.23;;;2.80;;
52730;SDS011;38624;53.242;6.974;2022-10-16T16:57:24;9.70;;;2.60;;
52730;SDS011;38624;53.242;6.974;2022-10-16T16:59:50;12.50;;;5.10;;
52730;SDS011;38624;53.242;6.974;2022-10-16T17:02:16;17.35;;;5.47;;
52730;SDS011;38624;53.242;6.974;2022-10-16T17:04:42;12.33;;;4.07;;
52730;SDS011;38624;53.242;6.974;2022-10-16T17:07:08;11.30;;;3.90;;
52730;SDS011;38624;53.242;6.974;2022-10-16T17:09:33;14.57;;;3.23;;
52730;SDS011;38624;53.242;6.974;2022-10-16T17:11:59;10.93;;;2.60;;
52730;SDS011;38624;53.242;6.974;2022-10-16T17:14:25;9.17;;;2.23;;
52730;SDS011;38624;53.242;6.974;2022-10-16T17:16:51;10.50;;;2.43;;
52730;SDS011;38624;53.242;6.974;2022-10-16T17:19:17;8.73;;;1.90;;
52730;SDS011;38624;53.242;6.974;2022-10-16T17:21:44;10.25;;;2.50;;
52730;SDS011;38624;53.242;6.974;2022-10-16T17:24:12;14.00;;;3.97;;
52730;SDS011;38624;53.242;6.974;2022-10-16T17:26:38;12.02;;;3.47;;
52730;SDS011;38624;53.242;6.974;2022-10-16T17:29:05;11.27;;;3.05;;
52730;SDS011;38624;53.242;6.974;2022-10-16T17:31:33;7.00;;;2.35;;
52730;SDS011;38624;53.242;6.974;2022-10-16T17:34:01;12.20;;;2.30;;
52730;SDS011;38624;53.242;6.974;2022-10-16T17:36:29;10.25;;;2.40;;
52730;SDS011;38624;53.242;6.974;2022-10-16T17:38:57;17.08;;;2.70;;